createdAt,value
2022-09-24T00:01:24.986Z,8.07
2022-09-24T00:03:54.132Z,10.10
2022-09-24T00:06:21.618Z,7.57
2022-09-24T00:08:50.531Z,8.03
2022-09-24T00:11:19.726Z,7.47
2022-09-24T00:13:46.641Z,7.40
2022-09-24T00:16:15.302Z,8.57
2022-09-24T00:18:42.594Z,8.03
2022-09-24T00:21:16.240Z,8.00
2022-09-24T00:23:43.001Z,8.57
2022-09-24T00:26:31.697Z,7.63
2022-09-24T00:28:59.237Z,8.23
2022-09-24T00:31:27.919Z,9.10
2022-09-24T00:33:54.676Z,8.80
2022-09-24T00:36:22.565Z,8.73
2022-09-24T00:38:51.384Z,8.17
2022-09-24T00:41:22.392Z,8.73
2022-09-24T00:43:49.694Z,8.80
2022-09-24T00:46:22.704Z,8.13
2022-09-24T00:48:51.870Z,11.80
2022-09-24T00:51:22.776Z,8.10
2022-09-24T00:53:55.236Z,7.40
2022-09-24T00:56:22.764Z,11.87
2022-09-24T00:58:53.152Z,9.30
2022-09-24T01:01:22.431Z,8.37
2022-09-24T01:03:50.563Z,8.43
2022-09-24T01:06:16.935Z,8.67
2022-09-24T01:08:43.897Z,8.97
2022-09-24T01:11:19.428Z,9.40
2022-09-24T01:14:07.761Z,14.67
2022-09-24T01:16:53.448Z,8.27
2022-09-24T01:19:41.134Z,8.60
2022-09-24T01:22:45.889Z,12.20
2022-09-24T01:25:12.196Z,8.60
2022-09-24T01:27:56.996Z,10.23
2022-09-24T01:30:25.268Z,9.20
2022-09-24T01:32:55.963Z,9.23
2022-09-24T01:35:39.255Z,9.87
2022-09-24T01:38:14.650Z,9.23
2022-09-24T01:40:43.754Z,12.23
2022-09-24T01:43:12.331Z,8.73
2022-09-24T01:45:40.231Z,8.90
2022-09-24T01:48:07.228Z,9.50
2022-09-24T01:50:42.499Z,9.00
2022-09-24T01:53:19.421Z,9.23
2022-09-24T01:55:50.439Z,8.63
2022-09-24T01:58:23.541Z,9.47
2022-09-24T02:00:56.937Z,8.80
2022-09-24T02:03:32.347Z,9.33
2022-09-24T02:06:04.409Z,12.87
2022-09-24T02:08:38.835Z,11.10
2022-09-24T02:11:07.822Z,9.50
2022-09-24T02:13:39.537Z,9.30
2022-09-24T02:16:09.594Z,8.20
2022-09-24T02:18:39.673Z,8.93
2022-09-24T02:21:10.300Z,8.63
2022-09-24T02:23:40.938Z,8.80
2022-09-24T02:26:07.438Z,9.73
2022-09-24T02:28:34.182Z,10.93
2022-09-24T02:31:06.841Z,8.57
2022-09-24T02:33:54.127Z,10.47
2022-09-24T02:36:24.897Z,8.93
2022-09-24T02:38:52.496Z,8.33
2022-09-24T02:41:23.911Z,9.83
2022-09-24T02:43:53.909Z,9.97
2022-09-24T02:46:20.299Z,12.33
2022-09-24T02:48:46.743Z,10.73
2022-09-24T02:51:13.146Z,10.73
2022-09-24T02:53:39.462Z,11.33
2022-09-24T02:56:06.558Z,8.60
2022-09-24T02:58:32.881Z,8.30
2022-09-24T03:00:59.246Z,10.97
2022-09-24T03:03:26.354Z,10.00
2022-09-24T03:05:54.703Z,8.93
2022-09-24T03:08:22.301Z,8.53
2022-09-24T03:10:49.585Z,9.20
2022-09-24T03:13:16.163Z,9.53
2022-09-24T03:15:42.617Z,9.83
2022-09-24T03:18:08.969Z,8.80
2022-09-24T03:20:35.314Z,11.13
2022-09-24T03:23:01.710Z,10.07
2022-09-24T03:25:28.163Z,11.10
2022-09-24T03:27:54.771Z,9.80
2022-09-24T03:30:39.762Z,10.13
2022-09-24T03:33:06.119Z,9.73
2022-09-24T03:35:32.677Z,9.47
2022-09-24T03:37:59.156Z,9.17
2022-09-24T03:40:25.662Z,9.33
2022-09-24T03:42:52.069Z,10.03
2022-09-24T03:45:18.468Z,9.63
2022-09-24T03:47:44.786Z,9.30
2022-09-24T03:50:11.629Z,8.70
2022-09-24T03:52:39.171Z,9.37
2022-09-24T03:55:06.095Z,10.27
2022-09-24T03:57:32.442Z,9.83
2022-09-24T03:59:59.386Z,10.93
2022-09-24T04:02:25.886Z,10.63
2022-09-24T04:04:52.346Z,9.67
2022-09-24T04:07:18.835Z,8.43
2022-09-24T04:09:45.210Z,9.27
2022-09-24T04:12:12.060Z,8.93
2022-09-24T04:14:38.487Z,9.13
2022-09-24T04:17:04.885Z,10.00
2022-09-24T04:19:31.835Z,8.73
2022-09-24T04:21:58.201Z,8.90
2022-09-24T04:24:24.538Z,9.13
2022-09-24T04:26:50.962Z,9.60
2022-09-24T04:29:18.255Z,10.60
2022-09-24T04:31:46.007Z,10.50
2022-09-24T04:34:12.533Z,12.47
2022-09-24T04:36:38.908Z,10.77
2022-09-24T04:39:05.709Z,10.50
2022-09-24T04:41:32.053Z,12.17
2022-09-24T04:43:59.357Z,9.87
2022-09-24T04:46:25.750Z,9.50
2022-09-24T04:48:53.153Z,9.33
2022-09-24T04:51:21.300Z,10.40
2022-09-24T04:53:50.844Z,11.07
2022-09-24T04:56:17.489Z,10.70
2022-09-24T04:58:43.837Z,12.33
2022-09-24T05:01:10.718Z,10.17
2022-09-24T05:03:37.095Z,10.90
2022-09-24T05:06:03.461Z,9.90
2022-09-24T05:08:29.840Z,14.97
2022-09-24T05:10:56.150Z,10.97
2022-09-24T05:13:22.671Z,10.33
2022-09-24T05:15:49.043Z,10.97
2022-09-24T05:18:15.482Z,10.73
2022-09-24T05:20:41.967Z,10.53
2022-09-24T05:23:08.349Z,11.27
2022-09-24T05:25:54.681Z,10.93
2022-09-24T05:28:21.390Z,10.80
2022-09-24T05:30:47.706Z,9.93
2022-09-24T05:33:14.132Z,10.90
2022-09-24T05:35:40.487Z,10.57
2022-09-24T05:38:06.858Z,10.10
2022-09-24T05:40:48.455Z,10.27
2022-09-24T05:43:16.235Z,11.70
2022-09-24T05:45:44.678Z,10.83
2022-09-24T05:48:11.756Z,10.50
2022-09-24T05:50:38.232Z,13.23
2022-09-24T05:53:05.898Z,10.17
2022-09-24T05:55:32.873Z,10.07
2022-09-24T05:58:07.732Z,15.60
2022-09-24T06:00:35.926Z,10.10
2022-09-24T06:03:10.326Z,10.20
2022-09-24T06:05:36.825Z,11.67
2022-09-24T06:08:04.483Z,9.30
2022-09-24T06:10:31.037Z,11.93
2022-09-24T06:12:57.382Z,12.17
2022-09-24T06:15:24.234Z,11.77
2022-09-24T06:17:53.485Z,10.10
2022-09-24T06:20:19.912Z,10.07
2022-09-24T06:22:46.515Z,10.90
2022-09-24T06:25:12.958Z,10.60
2022-09-24T06:27:39.262Z,12.80
2022-09-24T06:30:06.545Z,10.57
2022-09-24T06:32:32.962Z,11.63
2022-09-24T06:34:59.463Z,11.20
2022-09-24T06:37:25.856Z,10.20
2022-09-24T06:39:52.175Z,10.20
2022-09-24T06:42:18.751Z,11.27
2022-09-24T06:44:45.123Z,11.30
2022-09-24T06:47:12.550Z,12.27
2022-09-24T06:49:38.884Z,14.10
2022-09-24T06:52:05.230Z,14.27
2022-09-24T06:54:31.572Z,10.90
2022-09-24T06:56:57.952Z,10.80
2022-09-24T06:59:24.287Z,11.20
2022-09-24T07:01:50.711Z,11.83
2022-09-24T07:04:17.663Z,13.10
2022-09-24T07:07:02.813Z,10.60
2022-09-24T07:09:29.177Z,10.97
2022-09-24T07:11:58.006Z,12.50
2022-09-24T07:14:24.410Z,10.60
2022-09-24T07:16:50.902Z,11.47
2022-09-24T07:19:17.219Z,11.40
2022-09-24T07:21:43.628Z,13.20
2022-09-24T07:24:10.021Z,12.67
2022-09-24T07:26:36.336Z,12.03
2022-09-24T07:29:04.060Z,13.97
2022-09-24T07:31:30.447Z,12.40
2022-09-24T07:33:56.821Z,12.20
2022-09-24T07:36:23.228Z,10.87
2022-09-24T07:38:50.027Z,11.10
2022-09-24T07:41:17.762Z,12.50
2022-09-24T07:43:44.197Z,15.67
2022-09-24T07:46:10.795Z,13.80
2022-09-24T07:48:37.160Z,12.13
2022-09-24T07:51:05.272Z,11.97
2022-09-24T07:53:31.802Z,12.73
2022-09-24T07:56:01.449Z,13.10
2022-09-24T07:58:28.077Z,14.40
2022-09-24T08:00:57.932Z,13.33
2022-09-24T08:03:24.373Z,12.40
2022-09-24T08:05:50.826Z,16.23
2022-09-24T08:08:17.224Z,14.77
2022-09-24T08:10:43.749Z,12.70
2022-09-24T08:13:10.218Z,12.90
2022-09-24T08:15:36.636Z,14.37
2022-09-24T08:18:04.787Z,14.93
2022-09-24T08:20:34.294Z,13.03
2022-09-24T08:23:02.261Z,12.40
2022-09-24T08:25:29.121Z,15.23
2022-09-24T08:27:55.497Z,14.47
2022-09-24T08:30:21.892Z,14.30
2022-09-24T08:32:48.314Z,16.13
2022-09-24T08:35:15.867Z,13.23
2022-09-24T08:37:42.212Z,12.87
2022-09-24T08:40:18.790Z,13.37
2022-09-24T08:42:51.169Z,12.80
2022-09-24T08:45:36.785Z,15.90
2022-09-24T08:48:22.657Z,24.53
2022-09-24T08:50:58.363Z,15.53
2022-09-24T08:53:32.694Z,19.67
2022-09-24T08:56:00.700Z,16.10
2022-09-24T08:58:53.448Z,15.20
2022-09-24T09:01:44.597Z,16.13
2022-09-24T09:04:43.548Z,18.20
2022-09-24T09:07:12.613Z,14.37
2022-09-24T09:10:04.100Z,15.13
2022-09-24T09:12:48.630Z,17.43
2022-09-24T09:15:31.491Z,15.50
2022-09-24T09:18:14.615Z,17.40
2022-09-24T09:20:46.056Z,14.80
2022-09-24T09:23:26.188Z,18.97
2022-09-24T09:25:56.692Z,15.50
2022-09-24T09:28:23.359Z,16.40
2022-09-24T09:31:06.955Z,16.07
2022-09-24T09:34:10.651Z,18.10
2022-09-24T09:36:55.077Z,17.77
2022-09-24T09:39:40.295Z,16.57
2022-09-24T09:42:32.605Z,18.10
2022-09-24T09:45:09.024Z,20.90
2022-09-24T09:47:45.905Z,15.03
2022-09-24T09:50:39.359Z,17.40
2022-09-24T09:53:05.887Z,18.00
2022-09-24T09:55:36.111Z,19.60
2022-09-24T09:58:19.717Z,15.67
2022-09-24T10:00:49.355Z,16.67
2022-09-24T10:03:29.302Z,21.43
2022-09-24T10:06:05.142Z,16.87
2022-09-24T10:08:31.568Z,17.43
2022-09-24T10:11:00.310Z,17.60
2022-09-24T10:13:27.604Z,19.77
2022-09-24T10:16:00.635Z,20.17
2022-09-24T10:18:32.690Z,17.57
2022-09-24T10:21:02.623Z,23.00
2022-09-24T10:23:39.379Z,17.40
2022-09-24T10:26:06.971Z,19.50
2022-09-24T10:28:58.058Z,22.20
2022-09-24T10:31:27.001Z,21.07
2022-09-24T10:33:56.023Z,19.53
2022-09-24T10:36:25.115Z,19.17
2022-09-24T10:39:03.482Z,21.63
2022-09-24T10:41:31.858Z,29.83
2022-09-24T10:44:03.010Z,24.57
2022-09-24T10:46:58.436Z,19.60
2022-09-24T10:49:43.956Z,46.40
2022-09-24T10:52:40.775Z,25.73
2022-09-24T10:55:35.983Z,21.80
2022-09-24T10:58:38.805Z,22.87
2022-09-24T11:01:19.268Z,21.57
2022-09-24T11:04:12.814Z,20.47
2022-09-24T11:07:14.315Z,19.17
2022-09-24T11:10:18.423Z,19.90
2022-09-24T11:13:21.433Z,18.27
2022-09-24T11:16:19.643Z,20.00
2022-09-24T11:18:58.749Z,19.30
2022-09-24T11:21:57.546Z,19.10
2022-09-24T11:24:47.102Z,22.97
2022-09-24T11:27:32.046Z,22.40
2022-09-24T11:30:10.642Z,21.10
2022-09-24T11:32:51.938Z,23.27
2022-09-24T11:35:42.674Z,21.17
2022-09-24T11:38:13.309Z,20.03
2022-09-24T11:40:48.896Z,19.30
2022-09-24T11:43:52.714Z,19.27
2022-09-24T11:46:47.232Z,20.40
2022-09-24T11:49:38.454Z,24.30
2022-09-24T11:52:13.407Z,23.27
2022-09-24T11:54:58.235Z,21.43
2022-09-24T11:57:33.613Z,23.13
2022-09-24T12:00:13.807Z,23.60
2022-09-24T12:02:52.173Z,23.43
2022-09-24T12:05:35.594Z,19.07
2022-09-24T12:08:10.249Z,24.53
2022-09-24T12:11:01.362Z,22.33
2022-09-24T12:13:45.064Z,21.33
2022-09-24T12:16:19.544Z,19.30
2022-09-24T12:19:25.619Z,22.13
2022-09-24T12:21:53.535Z,24.80
2022-09-24T12:24:30.887Z,21.83
2022-09-24T12:27:01.109Z,21.50
2022-09-24T12:30:06.695Z,21.60
2022-09-24T12:32:56.963Z,19.60
2022-09-24T12:35:29.959Z,19.93
2022-09-24T12:38:19.342Z,22.50
2022-09-24T12:41:07.934Z,15.73
2022-09-24T12:43:39.183Z,15.43
2022-09-24T12:46:08.775Z,18.00
2022-09-24T12:48:38.549Z,21.80
2022-09-24T12:51:10.178Z,17.13
2022-09-24T12:53:40.322Z,17.90
2022-09-24T12:56:07.761Z,19.53
2022-09-24T12:58:43.608Z,21.77
2022-09-24T13:01:25.411Z,18.60
2022-09-24T13:04:25.283Z,18.90
2022-09-24T13:06:52.538Z,19.63
2022-09-24T13:09:38.359Z,20.07
2022-09-24T13:12:17.702Z,22.03
2022-09-24T13:15:03.025Z,22.43
2022-09-24T13:17:32.866Z,19.80
2022-09-24T13:20:04.890Z,19.50
2022-09-24T13:22:34.586Z,18.77
2022-09-24T13:25:10.357Z,20.90
2022-09-24T13:27:39.700Z,22.60
2022-09-24T13:30:09.416Z,23.63
2022-09-24T13:32:46.486Z,18.83
2022-09-24T13:35:22.196Z,18.07
2022-09-24T13:37:55.687Z,18.23
2022-09-24T13:40:27.306Z,18.07
2022-09-24T13:43:16.131Z,20.23
2022-09-24T13:45:45.149Z,15.57
2022-09-24T13:48:40.713Z,16.53
2022-09-24T13:51:12.940Z,18.00
2022-09-24T13:54:16.554Z,18.13
2022-09-24T13:56:55.169Z,14.97
2022-09-24T13:59:21.584Z,14.73
2022-09-24T14:01:48.079Z,16.80
2022-09-24T14:04:19.416Z,16.80
2022-09-24T14:06:50.779Z,14.00
2022-09-24T14:09:22.959Z,15.27
2022-09-24T14:11:52.196Z,13.63
2022-09-24T14:14:24.548Z,16.27
2022-09-24T14:16:54.896Z,13.53
2022-09-24T14:19:23.165Z,12.33
2022-09-24T14:21:56.687Z,12.13
2022-09-24T14:24:35.779Z,13.17
2022-09-24T14:27:07.108Z,11.27
2022-09-24T14:29:47.683Z,11.47
2022-09-24T14:32:24.614Z,12.03
2022-09-24T14:35:00.551Z,11.90
2022-09-24T14:37:32.263Z,11.50
2022-09-24T14:40:04.297Z,10.73
2022-09-24T14:42:37.904Z,11.60
2022-09-24T14:45:08.048Z,10.73
2022-09-24T14:47:36.746Z,14.43
2022-09-24T14:50:05.941Z,11.53
2022-09-24T14:52:39.032Z,10.80
2022-09-24T14:55:22.123Z,10.20
2022-09-24T14:57:55.285Z,10.77
2022-09-24T15:00:29.652Z,12.80
2022-09-24T15:03:13.087Z,11.70
2022-09-24T15:05:39.845Z,10.90
2022-09-24T15:08:21.536Z,10.40
2022-09-24T15:11:15.896Z,9.93
2022-09-24T15:13:42.736Z,10.10
2022-09-24T15:16:34.792Z,10.23
2022-09-24T15:19:07.203Z,10.17
2022-09-24T15:21:34.401Z,10.17
2022-09-24T15:24:01.082Z,9.07
2022-09-24T15:26:30.341Z,10.07
2022-09-24T15:28:58.338Z,10.40
2022-09-24T15:31:25.265Z,9.07
2022-09-24T15:33:52.504Z,9.03
2022-09-24T15:36:21.022Z,9.97
2022-09-24T15:38:49.887Z,9.90
2022-09-24T15:41:16.573Z,9.70
2022-09-24T15:43:43.036Z,11.40
2022-09-24T15:46:09.393Z,10.20
2022-09-24T15:48:35.806Z,10.37
2022-09-24T15:51:08.994Z,14.53
2022-09-24T15:53:37.405Z,10.27
2022-09-24T15:56:03.940Z,12.17
2022-09-24T15:58:30.294Z,9.43
2022-09-24T16:00:56.785Z,9.30
2022-09-24T16:03:29.117Z,10.07
2022-09-24T16:05:56.591Z,9.97
2022-09-24T16:08:23.130Z,13.00
2022-09-24T16:10:50.278Z,11.67
2022-09-24T16:13:17.732Z,9.27
2022-09-24T16:15:44.245Z,11.23
2022-09-24T16:18:13.926Z,10.33
2022-09-24T16:20:41.254Z,11.13
2022-09-24T16:23:14.054Z,10.40
2022-09-24T16:25:42.540Z,8.97
2022-09-24T16:28:09.067Z,9.00
2022-09-24T16:30:38.644Z,10.20
2022-09-24T16:33:05.317Z,9.53
2022-09-24T16:35:31.824Z,10.77
2022-09-24T16:37:58.301Z,10.40
2022-09-24T16:40:24.768Z,11.10
2022-09-24T16:42:51.340Z,11.07
2022-09-24T16:45:18.097Z,10.87
2022-09-24T16:47:44.504Z,11.43
2022-09-24T16:50:11.124Z,11.83
2022-09-24T16:52:37.578Z,14.03
2022-09-24T16:55:04.353Z,13.93
2022-09-24T16:57:30.835Z,13.70
2022-09-24T16:59:57.303Z,14.03
2022-09-24T17:02:23.843Z,14.70
2022-09-24T17:04:52.126Z,20.27
2022-09-24T17:07:18.497Z,16.00
2022-09-24T17:10:03.765Z,16.93
2022-09-24T17:12:30.319Z,15.27
2022-09-24T17:14:57.671Z,19.33
2022-09-24T17:17:24.105Z,17.40
2022-09-24T17:19:50.561Z,17.17
2022-09-24T17:22:16.865Z,18.83
2022-09-24T17:24:43.222Z,18.20
2022-09-24T17:27:09.570Z,18.27
2022-09-24T17:29:36.244Z,19.30
2022-09-24T17:32:02.796Z,16.13
2022-09-24T17:34:29.202Z,17.77
2022-09-24T17:36:56.527Z,17.00
2022-09-24T17:39:22.950Z,18.57
2022-09-24T17:41:49.297Z,17.80
2022-09-24T17:44:17.165Z,22.40
2022-09-24T17:46:44.293Z,19.07
2022-09-24T17:49:11.287Z,19.30
2022-09-24T17:51:38.035Z,19.13
2022-09-24T17:54:11.373Z,18.40
2022-09-24T17:56:40.990Z,18.23
2022-09-24T17:59:12.372Z,18.57
2022-09-24T18:01:40.674Z,18.53
2022-09-24T18:04:14.082Z,16.87
2022-09-24T18:06:42.091Z,20.03
2022-09-24T18:09:10.105Z,20.17
2022-09-24T18:11:48.943Z,20.30
2022-09-24T18:14:17.954Z,20.17
2022-09-24T18:16:45.387Z,19.83
2022-09-24T18:19:14.971Z,20.63
2022-09-24T18:21:41.385Z,20.17
2022-09-24T18:24:09.509Z,19.27
2022-09-24T18:26:37.589Z,21.00
2022-09-24T18:29:12.908Z,21.83
2022-09-24T18:31:41.054Z,20.80
2022-09-24T18:34:09.670Z,20.57
2022-09-24T18:36:38.502Z,23.97
2022-09-24T18:39:07.439Z,23.73
2022-09-24T18:41:33.914Z,22.83
2022-09-24T18:44:00.689Z,24.63
2022-09-24T18:46:29.513Z,23.30
2022-09-24T18:48:57.319Z,25.77
2022-09-24T18:51:26.974Z,25.13
2022-09-24T18:53:55.876Z,26.87
2022-09-24T18:56:24.051Z,25.27
2022-09-24T18:58:57.795Z,23.10
2022-09-24T19:01:25.196Z,22.83
2022-09-24T19:03:51.875Z,25.00
2022-09-24T19:06:18.277Z,22.57
2022-09-24T19:08:44.683Z,25.77
2022-09-24T19:11:13.869Z,25.63
2022-09-24T19:13:42.599Z,24.53
2022-09-24T19:16:11.954Z,27.90
2022-09-24T19:18:39.765Z,27.17
2022-09-24T19:21:09.130Z,27.83
2022-09-24T19:23:40.618Z,28.87
2022-09-24T19:26:09.089Z,29.30
2022-09-24T19:28:36.142Z,29.20
2022-09-24T19:31:02.839Z,27.90
2022-09-24T19:33:29.574Z,27.33
2022-09-24T19:35:58.296Z,30.43
2022-09-24T19:38:26.659Z,26.73
2022-09-24T19:41:06.924Z,29.33
2022-09-24T19:43:34.140Z,26.83
2022-09-24T19:46:06.911Z,31.63
2022-09-24T19:48:37.909Z,36.07
2022-09-24T19:51:07.202Z,34.40
2022-09-24T19:53:34.131Z,32.40
2022-09-24T19:56:00.888Z,30.83
2022-09-24T19:58:27.843Z,32.47
2022-09-24T20:00:54.260Z,35.60
2022-09-24T20:03:20.840Z,33.13
2022-09-24T20:05:47.246Z,32.67
2022-09-24T20:08:14.652Z,34.47
2022-09-24T20:10:42.132Z,35.17
2022-09-24T20:13:12.527Z,37.77
2022-09-24T20:15:40.015Z,35.73
2022-09-24T20:18:07.670Z,34.37
2022-09-24T20:20:34.254Z,33.93
2022-09-24T20:23:00.980Z,35.57
2022-09-24T20:25:46.502Z,36.13
2022-09-24T20:28:16.413Z,35.53
2022-09-24T20:30:43.570Z,36.63
2022-09-24T20:33:11.059Z,35.33
2022-09-24T20:35:41.557Z,38.90
2022-09-24T20:38:08.284Z,37.60
2022-09-24T20:40:36.485Z,43.13
2022-09-24T20:43:03.725Z,38.27
2022-09-24T20:45:31.298Z,40.17
2022-09-24T20:47:57.718Z,42.97
2022-09-24T20:50:24.052Z,39.00
2022-09-24T20:52:50.398Z,38.13
2022-09-24T20:55:16.810Z,37.63
2022-09-24T20:57:43.750Z,38.17
2022-09-24T21:00:14.016Z,39.17
2022-09-24T21:02:41.746Z,38.83
2022-09-24T21:05:09.862Z,41.30
2022-09-24T21:07:40.027Z,42.50
2022-09-24T21:10:08.941Z,39.33
2022-09-24T21:12:35.588Z,39.50
2022-09-24T21:15:02.298Z,39.37
2022-09-24T21:17:28.644Z,38.63
2022-09-24T21:19:54.963Z,36.47
2022-09-24T21:22:21.571Z,40.70
2022-09-24T21:24:52.078Z,36.17
2022-09-24T21:27:18.977Z,38.23
2022-09-24T21:29:47.207Z,36.97
2022-09-24T21:32:17.423Z,35.63
2022-09-24T21:34:44.553Z,33.50
2022-09-24T21:37:15.106Z,34.03
2022-09-24T21:39:43.056Z,33.30
2022-09-24T21:42:09.414Z,32.33
2022-09-24T21:44:36.105Z,32.00
2022-09-24T21:47:03.462Z,28.63
2022-09-24T21:49:36.362Z,29.23
2022-09-24T21:52:05.050Z,29.33
2022-09-24T21:54:33.395Z,29.23
2022-09-24T21:57:00.021Z,29.63
2022-09-24T21:59:45.050Z,28.67
2022-09-24T22:02:12.185Z,29.33
2022-09-24T22:04:39.090Z,30.03
2022-09-24T22:07:05.838Z,31.10
2022-09-24T22:09:32.537Z,28.43
2022-09-24T22:12:00.465Z,30.50
2022-09-24T22:14:27.417Z,29.53
2022-09-24T22:16:54.126Z,28.27
2022-09-24T22:19:20.546Z,29.00
2022-09-24T22:21:46.932Z,28.27
2022-09-24T22:24:13.422Z,27.80
2022-09-24T22:26:40.287Z,28.87
2022-09-24T22:29:06.619Z,28.90
2022-09-24T22:31:33.277Z,28.27
2022-09-24T22:34:18.499Z,29.60
2022-09-24T22:36:44.988Z,28.60
2022-09-24T22:39:11.306Z,30.63
2022-09-24T22:41:39.935Z,29.63
2022-09-24T22:44:07.068Z,27.13
2022-09-24T22:46:35.836Z,27.90
2022-09-24T22:49:04.530Z,30.27
2022-09-24T22:51:31.005Z,29.37
2022-09-24T22:53:58.641Z,29.30
2022-09-24T22:56:26.394Z,29.40
2022-09-24T22:58:58.554Z,29.43
2022-09-24T23:01:27.860Z,30.30
2022-09-24T23:03:55.805Z,26.80
2022-09-24T23:06:22.714Z,29.77
2022-09-24T23:08:49.764Z,28.47
2022-09-24T23:11:24.794Z,29.27
2022-09-24T23:13:57.138Z,30.40
2022-09-24T23:16:26.981Z,29.20
2022-09-24T23:18:55.508Z,28.40
2022-09-24T23:21:23.630Z,26.97
2022-09-24T23:23:55.227Z,29.73
2022-09-24T23:26:23.144Z,26.93
2022-09-24T23:28:53.003Z,25.63
2022-09-24T23:31:22.198Z,27.27
2022-09-24T23:33:49.719Z,29.67
2022-09-24T23:36:16.678Z,25.00
2022-09-24T23:38:43.963Z,26.83
2022-09-24T23:41:11.915Z,27.43
2022-09-24T23:43:38.718Z,25.97
2022-09-24T23:46:05.297Z,25.40
2022-09-24T23:48:32.526Z,24.50
2022-09-24T23:50:59.424Z,24.70
2022-09-24T23:53:26.632Z,23.47
2022-09-24T23:55:54.836Z,24.40
2022-09-24T23:58:23.182Z,24.70
